createdAt,value
2018-07-23T00:02:02.238Z,19.75
2018-07-23T00:04:30.790Z,19.72
2018-07-23T00:06:59.321Z,19.62
2018-07-23T00:09:27.816Z,19.52
2018-07-23T00:11:56.368Z,19.47
2018-07-23T00:14:24.907Z,19.43
2018-07-23T00:16:53.660Z,19.43
2018-07-23T00:19:22.243Z,19.40
2018-07-23T00:21:50.807Z,19.36
2018-07-23T00:24:19.314Z,19.28
2018-07-23T00:26:47.814Z,19.22
2018-07-23T00:29:16.298Z,19.22
2018-07-23T00:31:44.794Z,19.17
2018-07-23T00:34:13.247Z,19.22
2018-07-23T00:36:41.888Z,19.22
2018-07-23T00:39:10.677Z,19.15
2018-07-23T00:41:39.257Z,19.17
2018-07-23T00:44:07.894Z,19.19
2018-07-23T00:46:36.465Z,19.09
2018-07-23T00:49:05.423Z,19.02
2018-07-23T00:51:34.081Z,18.97
2018-07-23T00:54:02.590Z,18.93
2018-07-23T00:56:31.146Z,18.90
2018-07-23T00:58:59.746Z,18.91
2018-07-23T01:01:28.342Z,18.92
2018-07-23T01:03:56.899Z,18.83
2018-07-23T01:06:25.601Z,18.79
2018-07-23T01:08:54.167Z,18.78
2018-07-23T01:11:22.731Z,18.74
2018-07-23T01:13:51.532Z,18.69
2018-07-23T01:16:20.047Z,18.65
2018-07-23T01:18:48.577Z,18.68
2018-07-23T01:21:17.360Z,18.76
2018-07-23T01:23:46.086Z,18.72
2018-07-23T01:26:14.562Z,18.64
2018-07-23T01:28:43.165Z,18.64
2018-07-23T01:31:11.774Z,18.61
2018-07-23T01:33:40.305Z,18.56
2018-07-23T01:36:09.229Z,18.55
2018-07-23T01:38:37.785Z,18.46
2018-07-23T01:41:06.797Z,18.40
2018-07-23T01:43:35.514Z,18.40
2018-07-23T01:46:04.306Z,18.41
2018-07-23T01:48:32.931Z,18.42
2018-07-23T01:51:01.712Z,18.42
2018-07-23T01:53:30.262Z,18.42
2018-07-23T02:02:42.453Z,18.10
2018-07-23T02:05:10.954Z,18.05
2018-07-23T02:07:39.529Z,18.02
2018-07-23T02:10:08.022Z,17.95
2018-07-23T02:12:38.110Z,17.93
2018-07-23T02:15:06.615Z,17.88
2018-07-23T02:17:35.421Z,17.80
2018-07-23T02:20:04.946Z,17.74
2018-07-23T02:22:33.633Z,17.68
2018-07-23T02:25:02.538Z,17.66
2018-07-23T02:27:31.069Z,17.63
2018-07-23T02:29:59.519Z,17.63
2018-07-23T02:32:28.115Z,17.61
2018-07-23T02:34:56.580Z,17.60
2018-07-23T02:37:25.814Z,17.59
2018-07-23T02:39:54.271Z,17.53
2018-07-23T02:42:22.826Z,17.52
2018-07-23T02:44:51.723Z,17.51
2018-07-23T02:47:20.269Z,17.47
2018-07-23T02:49:49.584Z,17.45
2018-07-23T02:52:18.343Z,17.40
2018-07-23T02:54:47.071Z,17.38
2018-07-23T02:57:15.668Z,17.39
2018-07-23T02:59:44.235Z,17.37
2018-07-23T03:02:12.860Z,17.36
2018-07-23T03:04:41.419Z,17.39
2018-07-23T03:07:09.978Z,17.39
2018-07-23T03:09:38.658Z,17.33
2018-07-23T03:12:07.214Z,17.33
2018-07-23T03:14:35.705Z,17.29
2018-07-23T03:17:04.372Z,17.29
2018-07-23T03:19:33.271Z,17.29
2018-07-23T03:22:01.788Z,17.32
2018-07-23T03:24:30.366Z,17.34
2018-07-23T03:26:58.890Z,17.44
2018-07-23T03:29:28.285Z,17.44
2018-07-23T03:31:56.942Z,17.37
2018-07-23T03:34:25.610Z,17.29
2018-07-23T03:36:54.168Z,17.22
2018-07-23T03:39:22.693Z,17.19
2018-07-23T03:41:51.334Z,17.16
2018-07-23T03:44:19.843Z,17.08
2018-07-23T03:46:48.754Z,17.05
2018-07-23T03:49:17.386Z,17.01
2018-07-23T03:51:45.909Z,16.98
2018-07-23T03:54:14.530Z,17.04
2018-07-23T03:56:43.363Z,17.14
2018-07-23T03:59:11.876Z,17.22
2018-07-23T04:01:40.538Z,17.16
2018-07-23T04:04:09.249Z,17.12
2018-07-23T04:06:37.904Z,17.12
2018-07-23T04:09:08.709Z,17.09
2018-07-23T04:11:37.195Z,17.11
2018-07-23T04:14:06.169Z,17.15
2018-07-23T04:16:34.971Z,17.16
2018-07-23T04:19:03.521Z,17.14
2018-07-23T04:21:32.259Z,17.14
2018-07-23T04:24:00.783Z,17.21
2018-07-23T04:26:29.371Z,17.23
2018-07-23T04:28:58.113Z,17.25
2018-07-23T04:31:26.598Z,17.30
2018-07-23T04:33:55.094Z,17.27
2018-07-23T04:36:23.575Z,17.33
2018-07-23T04:38:52.134Z,17.39
2018-07-23T04:41:20.643Z,17.39
2018-07-23T04:43:49.145Z,17.46
2018-07-23T04:46:17.750Z,17.50
2018-07-23T04:48:46.355Z,17.56
2018-07-23T04:51:14.861Z,17.60
2018-07-23T04:53:43.447Z,17.60
2018-07-23T04:56:11.961Z,17.59
2018-07-23T04:58:40.380Z,17.61
2018-07-23T05:01:08.924Z,17.60
2018-07-23T05:03:37.459Z,17.63
2018-07-23T05:06:05.997Z,17.64
2018-07-23T05:08:34.534Z,17.66
2018-07-23T05:11:03.139Z,17.70
2018-07-23T05:13:31.702Z,17.77
2018-07-23T05:16:00.273Z,17.79
2018-07-23T05:18:28.754Z,17.83
2018-07-23T05:20:57.291Z,17.93
2018-07-23T05:23:25.702Z,17.99
2018-07-23T05:25:54.223Z,18.06
2018-07-23T05:28:22.702Z,18.14
2018-07-23T05:30:51.373Z,18.22
2018-07-23T05:33:19.856Z,18.27
2018-07-23T05:35:48.447Z,18.36
2018-07-23T05:38:17.160Z,18.38
2018-07-23T05:40:45.723Z,18.44
2018-07-23T05:43:14.194Z,18.47
2018-07-23T05:45:42.770Z,18.51
2018-07-23T05:48:11.235Z,18.56
2018-07-23T05:50:39.695Z,18.68
2018-07-23T05:53:08.374Z,18.69
2018-07-23T05:55:36.893Z,18.76
2018-07-23T05:58:05.553Z,18.77
2018-07-23T06:00:34.075Z,18.82
2018-07-23T06:03:02.569Z,18.89
2018-07-23T06:05:31.346Z,19.00
2018-07-23T06:07:59.874Z,19.16
2018-07-23T06:10:28.431Z,19.31
2018-07-23T06:12:56.931Z,19.48
2018-07-23T06:15:25.611Z,19.57
2018-07-23T06:17:54.246Z,19.68
2018-07-23T06:20:22.756Z,19.74
2018-07-23T06:22:51.381Z,19.87
2018-07-23T06:25:19.925Z,19.99
2018-07-23T06:27:48.406Z,20.15
2018-07-23T06:30:16.896Z,20.26
2018-07-23T06:32:45.438Z,20.28
2018-07-23T06:35:14.070Z,20.31
2018-07-23T06:37:42.740Z,20.47
2018-07-23T06:40:11.270Z,20.57
2018-07-23T06:42:39.964Z,20.66
2018-07-23T06:45:08.394Z,20.58
2018-07-23T06:47:36.928Z,20.67
2018-07-23T06:50:05.483Z,20.78
2018-07-23T06:52:34.088Z,20.96
2018-07-23T06:55:02.612Z,21.13
2018-07-23T06:57:31.176Z,21.29
2018-07-23T06:59:59.705Z,21.43
2018-07-23T07:02:28.198Z,21.43
2018-07-23T07:04:57.690Z,21.50
2018-07-23T07:07:26.187Z,21.55
2018-07-23T07:09:54.734Z,21.56
2018-07-23T07:12:23.237Z,21.58
2018-07-23T07:14:51.880Z,21.80
2018-07-23T07:17:20.610Z,21.89
2018-07-23T07:19:49.246Z,22.04
2018-07-23T07:22:17.810Z,22.11
2018-07-23T07:24:46.527Z,22.09
2018-07-23T07:27:15.148Z,22.18
2018-07-23T07:29:43.675Z,22.25
2018-07-23T07:32:12.198Z,22.47
2018-07-23T07:34:40.770Z,22.54
2018-07-23T07:37:10.281Z,22.69
2018-07-23T07:39:38.769Z,22.93
2018-07-23T07:42:07.296Z,23.07
2018-07-23T07:44:36.158Z,23.21
2018-07-23T07:47:05.110Z,23.20
2018-07-23T07:49:33.958Z,23.23
2018-07-23T07:52:02.447Z,23.08
2018-07-23T07:54:30.942Z,23.15
2018-07-23T07:56:59.855Z,23.36
2018-07-23T07:59:28.683Z,23.49
2018-07-23T08:01:57.186Z,23.70
2018-07-23T08:04:25.698Z,23.68
2018-07-23T08:06:54.554Z,23.60
2018-07-23T08:09:23.246Z,23.87
2018-07-23T08:11:51.784Z,23.64
2018-07-23T08:14:20.314Z,23.66
2018-07-23T08:16:48.831Z,23.71
2018-07-23T08:19:17.330Z,23.83
2018-07-23T08:21:45.867Z,23.81
2018-07-23T08:24:14.430Z,23.83
2018-07-23T08:26:42.990Z,24.09
2018-07-23T08:29:11.616Z,24.19
2018-07-23T08:31:40.145Z,24.36
2018-07-23T08:34:08.842Z,24.44
2018-07-23T08:36:37.786Z,24.66
2018-07-23T08:39:09.408Z,24.74
2018-07-23T08:41:37.977Z,24.69
2018-07-23T08:44:07.095Z,24.98
2018-07-23T08:46:35.751Z,25.09
2018-07-23T08:49:05.075Z,25.24
2018-07-23T08:51:34.323Z,25.34
2018-07-23T08:54:02.799Z,25.46
2018-07-23T08:56:31.333Z,25.58
2018-07-23T08:58:59.902Z,25.57
2018-07-23T09:01:28.497Z,25.75
2018-07-23T09:03:57.711Z,25.72
2018-07-23T09:06:26.829Z,26.00
2018-07-23T09:08:55.411Z,26.09
2018-07-23T09:11:23.950Z,25.92
2018-07-23T09:13:53.714Z,26.22
2018-07-23T09:16:22.199Z,26.38
2018-07-23T09:18:50.712Z,26.68
2018-07-23T09:21:19.330Z,26.63
2018-07-23T09:23:48.003Z,27.06
2018-07-23T09:26:16.698Z,27.29
2018-07-23T09:28:45.304Z,27.30
2018-07-23T09:31:13.975Z,27.51
2018-07-23T09:33:42.486Z,27.35
2018-07-23T09:36:10.979Z,27.70
2018-07-23T09:38:39.605Z,27.97
2018-07-23T09:41:08.372Z,28.36
2018-07-23T09:43:37.451Z,28.84
2018-07-23T09:46:06.137Z,28.46
2018-07-23T09:48:34.615Z,28.95
2018-07-23T09:51:03.438Z,29.09
2018-07-23T09:53:32.051Z,29.95
2018-07-23T09:56:00.598Z,30.12
2018-07-23T09:58:29.450Z,30.52
2018-07-23T10:01:03.433Z,30.50
2018-07-23T10:03:31.957Z,30.70
2018-07-23T10:06:00.415Z,31.16
2018-07-23T10:08:29.883Z,31.35
2018-07-23T10:10:58.635Z,31.68
2018-07-23T10:13:27.098Z,32.05
2018-07-23T10:15:55.596Z,32.53
2018-07-23T10:18:24.155Z,32.20
2018-07-23T10:20:52.911Z,32.86
2018-07-23T10:23:21.666Z,32.96
2018-07-23T10:25:51.219Z,33.67
2018-07-23T10:28:19.768Z,33.64
2018-07-23T10:30:48.238Z,33.74
2018-07-23T10:33:16.786Z,33.63
2018-07-23T10:35:45.553Z,33.92
2018-07-23T10:38:14.241Z,34.31
2018-07-23T10:40:42.919Z,34.52
2018-07-23T10:43:11.448Z,34.09
2018-07-23T10:45:40.037Z,33.72
2018-07-23T10:48:08.610Z,34.18
2018-07-23T10:50:37.347Z,34.73
2018-07-23T10:53:05.842Z,33.62
2018-07-23T10:55:34.323Z,34.35
2018-07-23T10:58:02.868Z,35.27
2018-07-23T11:00:32.834Z,35.76
2018-07-23T11:03:01.425Z,34.43
2018-07-23T11:05:30.087Z,32.65
2018-07-23T11:07:58.587Z,31.65
2018-07-23T11:10:27.157Z,31.43
2018-07-23T11:12:55.638Z,30.73
2018-07-23T11:15:24.411Z,31.03
2018-07-23T11:17:53.093Z,33.02
2018-07-23T11:20:21.687Z,34.58
2018-07-23T11:22:50.287Z,34.69
2018-07-23T11:25:39.178Z,34.78
2018-07-23T11:27:47.470Z,35.45
2018-07-23T11:30:16.022Z,36.37
2018-07-23T11:32:44.679Z,34.49
2018-07-23T11:35:13.157Z,33.18
2018-07-23T11:37:41.786Z,32.83
2018-07-23T11:40:10.263Z,31.92
2018-07-23T11:42:38.864Z,31.94
2018-07-23T11:45:07.363Z,31.87
2018-07-23T11:47:35.944Z,31.85
2018-07-23T11:50:04.524Z,31.64
2018-07-23T11:52:33.090Z,31.47
2018-07-23T11:55:01.701Z,31.85
2018-07-23T11:57:30.231Z,31.56
2018-07-23T11:59:58.724Z,31.32
2018-07-23T12:02:27.441Z,31.16
2018-07-23T12:04:56.013Z,31.29
2018-07-23T12:07:24.659Z,31.49
2018-07-23T12:09:53.141Z,32.86
2018-07-23T12:12:21.654Z,35.14
2018-07-23T12:14:50.686Z,35.91
2018-07-23T12:17:19.227Z,36.58
2018-07-23T12:19:47.961Z,35.69
2018-07-23T12:22:16.549Z,35.17
2018-07-23T12:24:45.242Z,35.32
2018-07-23T12:27:13.746Z,34.33
2018-07-23T12:29:42.362Z,36.51
2018-07-23T12:32:10.910Z,38.75
2018-07-23T12:34:39.419Z,39.80
2018-07-23T12:37:07.960Z,41.14
2018-07-23T12:39:36.806Z,42.01
2018-07-23T12:42:05.382Z,43.09
2018-07-23T12:44:33.841Z,42.60
2018-07-23T12:47:03.338Z,43.26
2018-07-23T12:49:31.838Z,43.34
2018-07-23T12:52:00.333Z,44.33
2018-07-23T12:54:28.829Z,42.13
2018-07-23T12:56:57.601Z,39.49
2018-07-23T12:59:26.483Z,37.97
2018-07-23T13:01:55.003Z,38.85
2018-07-23T13:04:23.485Z,36.91
2018-07-23T13:06:52.017Z,35.66
2018-07-23T13:09:20.642Z,35.24
2018-07-23T13:11:49.099Z,34.24
2018-07-23T13:14:17.679Z,33.95
2018-07-23T13:16:46.267Z,34.33
2018-07-23T13:19:14.858Z,33.92
2018-07-23T13:21:43.449Z,33.39
2018-07-23T13:24:12.190Z,33.79
2018-07-23T13:26:40.713Z,33.57
2018-07-23T13:29:09.485Z,33.12
2018-07-23T13:31:38.049Z,33.07
2018-07-23T13:34:06.658Z,32.60
2018-07-23T13:36:35.166Z,32.06
2018-07-23T13:39:03.817Z,31.72
2018-07-23T13:41:32.362Z,31.47
2018-07-23T13:44:01.127Z,31.14
2018-07-23T13:46:29.623Z,30.90
2018-07-23T13:48:58.218Z,30.86
2018-07-23T13:51:26.806Z,31.16
2018-07-23T13:53:55.503Z,31.49
2018-07-23T13:56:24.093Z,31.74
2018-07-23T13:58:52.742Z,32.32
2018-07-23T14:01:21.345Z,33.96
2018-07-23T14:03:50.196Z,35.50
2018-07-23T14:06:18.697Z,34.57
2018-07-23T14:08:47.460Z,33.32
2018-07-23T14:11:16.071Z,32.51
2018-07-23T14:13:44.890Z,32.08
2018-07-23T14:16:13.386Z,31.67
2018-07-23T14:18:42.002Z,31.59
2018-07-23T14:21:10.543Z,31.33
2018-07-23T14:23:39.041Z,31.13
2018-07-23T14:26:07.600Z,31.40
2018-07-23T14:28:36.128Z,31.40
2018-07-23T14:31:04.585Z,32.16
2018-07-23T14:33:33.068Z,33.07
2018-07-23T14:36:01.665Z,38.00
2018-07-23T14:38:30.321Z,38.48
2018-07-23T14:40:58.839Z,39.18
2018-07-23T14:43:27.575Z,40.52
2018-07-23T14:45:56.419Z,42.36
2018-07-23T14:48:24.878Z,38.93
2018-07-23T14:50:53.836Z,37.03
2018-07-23T14:53:23.042Z,35.57
2018-07-23T14:55:51.759Z,35.34
2018-07-23T14:58:20.425Z,33.81
2018-07-23T15:00:48.983Z,33.36
2018-07-23T15:03:17.624Z,32.96
2018-07-23T15:05:46.130Z,32.70
2018-07-23T15:08:14.710Z,32.53
2018-07-23T15:10:43.495Z,32.20
2018-07-23T15:13:12.275Z,32.20
2018-07-23T15:15:40.970Z,34.59
2018-07-23T15:18:09.526Z,38.40
2018-07-23T15:20:38.067Z,40.22
2018-07-23T15:23:07.055Z,41.71
2018-07-23T15:25:35.667Z,42.67
2018-07-23T15:28:04.755Z,42.93
2018-07-23T15:30:33.287Z,43.80
2018-07-23T15:33:01.790Z,43.40
2018-07-23T15:35:30.349Z,43.92
2018-07-23T15:37:59.299Z,43.99
2018-07-23T15:40:27.886Z,43.66
2018-07-23T15:42:56.408Z,43.09
2018-07-23T15:45:25.022Z,43.32
2018-07-23T15:47:53.526Z,44.64
2018-07-23T15:50:22.054Z,44.55
2018-07-23T15:52:50.562Z,44.26
2018-07-23T15:55:19.196Z,44.11
2018-07-23T15:57:47.754Z,45.36
2018-07-23T16:00:16.377Z,44.62
2018-07-23T16:02:45.125Z,45.05
2018-07-23T16:05:13.722Z,43.16
2018-07-23T16:07:42.366Z,43.52
2018-07-23T16:10:10.838Z,44.00
2018-07-23T16:12:39.330Z,43.52
2018-07-23T16:15:08.585Z,44.39
2018-07-23T16:17:37.125Z,44.45
2018-07-23T16:20:06.226Z,44.51
2018-07-23T16:22:35.046Z,40.59
2018-07-23T16:25:03.662Z,39.13
2018-07-23T16:27:32.166Z,37.45
2018-07-23T16:30:00.937Z,40.09
2018-07-23T16:32:29.697Z,41.32
2018-07-23T16:34:58.206Z,42.51
2018-07-23T16:37:26.934Z,43.24
2018-07-23T16:39:55.518Z,43.44
2018-07-23T16:42:24.142Z,43.70
2018-07-23T16:44:52.721Z,43.56
2018-07-23T16:47:21.225Z,43.26
2018-07-23T16:49:49.859Z,43.28
2018-07-23T16:52:18.488Z,43.26
2018-07-23T16:54:47.266Z,42.65
2018-07-23T16:57:15.734Z,42.04
2018-07-23T16:59:44.292Z,41.98
2018-07-23T17:02:12.858Z,42.91
2018-07-23T17:04:41.482Z,43.17
2018-07-23T17:07:09.982Z,42.39
2018-07-23T17:09:38.648Z,42.95
2018-07-23T17:12:07.263Z,43.11
2018-07-23T17:14:36.833Z,43.03
2018-07-23T17:17:05.681Z,42.05
2018-07-23T17:19:34.558Z,41.13
2018-07-23T17:22:03.142Z,40.58
2018-07-23T17:24:31.757Z,39.47
2018-07-23T17:27:00.334Z,40.49
2018-07-23T17:29:29.114Z,40.85
2018-07-23T17:31:57.670Z,40.63
2018-07-23T17:34:26.149Z,40.38
2018-07-23T17:36:54.686Z,39.12
2018-07-23T17:39:23.174Z,37.09
2018-07-23T17:41:51.868Z,34.04
2018-07-23T17:44:20.462Z,33.28
2018-07-23T17:46:49.113Z,32.51
2018-07-23T17:49:17.876Z,32.34
2018-07-23T17:51:46.427Z,31.96
2018-07-23T17:54:15.238Z,31.59
2018-07-23T17:56:43.811Z,32.24
2018-07-23T17:59:12.447Z,32.73
2018-07-23T18:01:41.181Z,33.23
2018-07-23T18:04:09.805Z,32.18
2018-07-23T18:06:38.554Z,31.88
2018-07-23T18:09:09.933Z,31.14
2018-07-23T18:11:38.789Z,30.48
2018-07-23T18:14:07.527Z,30.34
2018-07-23T18:16:36.654Z,30.08
2018-07-23T18:19:05.160Z,29.82
2018-07-23T18:21:33.780Z,29.58
2018-07-23T18:24:06.594Z,29.29
2018-07-23T18:26:35.485Z,29.08
2018-07-23T18:29:04.105Z,28.97
2018-07-23T18:31:32.759Z,28.81
2018-07-23T18:34:01.223Z,28.63
2018-07-23T18:36:30.118Z,28.50
2018-07-23T18:38:58.590Z,28.39
2018-07-23T18:41:27.081Z,28.17
2018-07-23T18:43:55.546Z,28.05
2018-07-23T18:46:24.145Z,27.96
2018-07-23T18:50:00.563Z,27.75
2018-07-23T18:52:30.169Z,27.58
2018-07-23T18:55:00.313Z,27.40
2018-07-23T18:57:28.822Z,27.20
2018-07-23T18:59:57.385Z,27.06
2018-07-23T19:02:25.933Z,26.91
2018-07-23T19:04:54.502Z,26.77
2018-07-23T19:07:22.987Z,26.56
2018-07-23T19:09:51.622Z,26.41
2018-07-23T19:12:20.386Z,26.35
2018-07-23T19:14:48.942Z,26.27
2018-07-23T19:17:17.542Z,26.10
2018-07-23T19:19:46.126Z,25.92
2018-07-23T19:22:14.749Z,25.80
2018-07-23T19:24:43.247Z,25.70
2018-07-23T19:27:12.198Z,25.53
2018-07-23T19:29:40.718Z,25.40
2018-07-23T19:32:09.246Z,25.33
2018-07-23T19:34:37.979Z,25.28
2018-07-23T19:37:06.813Z,25.26
2018-07-23T19:39:35.427Z,25.22
2018-07-23T19:42:04.335Z,25.12
2018-07-23T19:44:32.867Z,25.00
2018-07-23T19:47:01.353Z,24.96
2018-07-23T19:49:29.799Z,25.00
2018-07-23T19:51:58.415Z,24.92
2018-07-23T19:54:26.853Z,24.91
2018-07-23T19:56:55.480Z,24.88
2018-07-23T19:59:23.949Z,24.89
2018-07-23T20:01:52.919Z,24.80
2018-07-23T20:04:23.302Z,24.78
2018-07-23T20:06:52.133Z,24.78
2018-07-23T20:09:20.624Z,24.70
2018-07-23T20:11:49.186Z,24.60
2018-07-23T20:14:17.731Z,24.48
2018-07-23T20:16:46.294Z,24.42
2018-07-23T20:19:14.835Z,24.38
2018-07-23T20:21:43.675Z,24.28
2018-07-23T20:24:12.302Z,24.20
2018-07-23T20:26:40.871Z,24.14
2018-07-23T20:29:09.834Z,24.07
2018-07-23T20:31:38.510Z,24.07
2018-07-23T20:34:07.005Z,23.98
2018-07-23T20:36:35.567Z,23.91
2018-07-23T20:39:05.784Z,23.87
2018-07-23T20:41:34.294Z,23.86
2018-07-23T20:44:02.966Z,23.79
2018-07-23T20:46:31.626Z,23.67
2018-07-23T20:49:00.142Z,23.65
2018-07-23T20:51:28.849Z,23.59
2018-07-23T20:53:57.414Z,23.55
2018-07-23T20:56:25.977Z,23.52
2018-07-23T20:58:54.602Z,23.47
2018-07-23T21:01:23.090Z,23.47
2018-07-23T21:03:52.051Z,23.37
2018-07-23T21:06:20.642Z,23.32
2018-07-23T21:08:49.213Z,23.28
2018-07-23T21:11:17.781Z,23.23
2018-07-23T21:13:46.386Z,23.21
2018-07-23T21:16:14.998Z,23.19
2018-07-23T21:18:43.520Z,23.15
2018-07-23T21:21:12.266Z,23.08
2018-07-23T21:23:40.771Z,23.04
2018-07-23T21:26:09.241Z,23.07
2018-07-23T21:28:37.769Z,23.04
2018-07-23T21:31:06.629Z,22.96
2018-07-23T21:33:35.262Z,22.90
2018-07-23T21:36:03.950Z,22.87
2018-07-23T21:38:32.476Z,22.86
2018-07-23T21:41:00.965Z,22.86
2018-07-23T21:43:29.557Z,22.87
2018-07-23T21:45:57.990Z,22.84
2018-07-23T21:48:26.562Z,22.77
2018-07-23T21:50:55.218Z,22.81
2018-07-23T21:53:23.679Z,22.78
2018-07-23T21:55:52.312Z,22.75
2018-07-23T21:58:20.885Z,22.78
2018-07-23T22:00:49.470Z,22.78
2018-07-23T22:03:18.026Z,22.72
2018-07-23T22:05:46.555Z,22.59
2018-07-23T22:08:15.086Z,22.57
2018-07-23T22:10:44.187Z,22.61
2018-07-23T22:13:12.715Z,22.66
2018-07-23T22:15:41.322Z,22.65
2018-07-23T22:18:09.969Z,22.56
2018-07-23T22:20:38.556Z,22.53
2018-07-23T22:23:07.117Z,22.47
2018-07-23T22:25:35.611Z,22.30
2018-07-23T22:28:04.114Z,22.25
2018-07-23T22:30:32.818Z,22.28
2018-07-23T22:33:01.298Z,22.22
2018-07-23T22:35:29.891Z,22.21
2018-07-23T22:37:58.530Z,22.15
2018-07-23T22:40:27.057Z,22.14
2018-07-23T22:42:55.819Z,22.04
2018-07-23T22:45:24.360Z,22.05
2018-07-23T22:47:53.226Z,22.01
2018-07-23T22:50:21.876Z,21.97
2018-07-23T22:52:50.374Z,21.94
2018-07-23T22:55:18.895Z,21.93
2018-07-23T22:57:47.472Z,22.02
2018-07-23T23:00:16.076Z,22.03
2018-07-23T23:02:44.554Z,21.99
2018-07-23T23:05:13.446Z,21.87
2018-07-23T23:07:42.129Z,21.82
2018-07-23T23:10:11.016Z,21.72
2018-07-23T23:12:39.535Z,21.64
2018-07-23T23:15:08.553Z,21.50
2018-07-23T23:17:37.156Z,21.43
2018-07-23T23:20:05.704Z,21.43
2018-07-23T23:22:35.006Z,21.36
2018-07-23T23:25:03.808Z,21.32
2018-07-23T23:27:32.726Z,21.23
2018-07-23T23:30:01.427Z,21.20
2018-07-23T23:32:30.102Z,21.08
2018-07-23T23:34:58.702Z,21.02
2018-07-23T23:37:27.206Z,20.90
2018-07-23T23:39:55.725Z,20.84
2018-07-23T23:42:24.293Z,20.79
2018-07-23T23:44:52.997Z,20.62
2018-07-23T23:47:21.650Z,20.47
2018-07-23T23:49:50.927Z,20.41
2018-07-23T23:52:19.486Z,20.36
2018-07-23T23:54:48.657Z,20.29
2018-07-23T23:57:17.202Z,20.31
2018-07-23T23:59:45.746Z,20.33
